Time;durP1;ratioP1;P1;durP2;ratioP2;P2;SDS_P1;SDS_P2;PMS_P1;PMS_P2;Temp;Humidity;BMP_temperature;BMP_pressure;BME280_temperature;BME280_humidity;BME280_pressure;Samples;Min_cycle;Max_cycle;Signal;HPM_P1;HPM_P2
2021/09/12 00:01:48;;;;;;;32.60;26.13;;;;;;;14.58;91.39;100561.39;1667035;84;21393;-71
2021/09/12 00:04:15;;;;;;;30.27;26.60;;;;;;;14.61;91.24;100558.97;1666483;84;21426;-70
2021/09/12 00:06:42;;;;;;;31.13;27.50;;;;;;;14.62;91.11;100562.45;1672619;83;21489;-72
2021/09/12 00:09:10;;;;;;;29.33;26.03;;;;;;;14.58;90.97;100558.19;1642959;84;21384;-71
2021/09/12 00:11:37;;;;;;;33.37;27.53;;;;;;;14.58;90.97;100558.19;1678923;84;21724;-71
2021/09/12 00:14:03;;;;;;;35.07;28.33;;;;;;;14.56;90.93;100566.27;1675149;83;21515;-71
2021/09/12 00:16:59;;;;;;;32.43;26.70;;;;;;;14.56;90.98;100560.89;1683586;83;21433;-71
2021/09/12 00:19:26;;;;;;;33.80;27.37;;;;;;;14.58;91.00;100562.73;1655584;84;21351;-71
2021/09/12 00:21:54;;;;;;;31.37;27.40;;;;;;;14.56;90.97;100563.03;1671880;84;21406;-71
2021/09/12 00:24:23;;;;;;;31.83;27.80;;;;;;;14.56;91.01;100554.97;1661412;84;21387;-72
2021/09/12 00:26:50;;;;;;;32.30;26.43;;;;;;;14.58;91.03;100560.05;1666095;84;21420;-72
2021/09/12 00:29:18;;;;;;;33.53;26.37;;;;;;;14.59;91.06;100559.78;1679012;83;21411;-71
2021/09/12 00:31:48;;;;;;;33.10;26.53;;;;;;;14.61;91.11;100563.00;1680238;83;21279;-71
2021/09/12 00:34:14;;;;;;;31.23;26.57;;;;;;;14.60;91.14;100558.69;1657845;86;21458;-71
2021/09/12 00:36:41;;;;;;;29.27;26.07;;;;;;;14.60;91.16;100554.66;1674712;84;21452;-72
2021/09/12 00:39:08;;;;;;;28.90;25.77;;;;;;;14.61;91.11;100561.66;1655531;83;21486;-72
2021/09/12 00:41:40;;;;;;;29.30;25.07;;;;;;;14.61;91.04;100556.80;1667104;84;22055;-71
2021/09/12 00:44:12;;;;;;;33.37;26.43;;;;;;;14.63;90.92;100555.44;1665933;84;21397;-71
2021/09/12 00:46:40;;;;;;;31.73;26.60;;;;;;;14.62;90.84;100558.42;1655253;85;21486;-71
2021/09/12 00:49:07;;;;;;;31.43;26.67;;;;;;;14.59;90.70;100557.09;1654403;84;21453;-71
2021/09/12 00:51:34;;;;;;;29.23;25.13;;;;;;;14.59;90.70;100557.09;1665490;84;21986;-72
2021/09/12 00:54:06;;;;;;;30.87;24.80;;;;;;;14.61;90.40;100561.66;1667535;84;21412;-71
2021/09/12 00:56:35;;;;;;;29.47;25.40;;;;;;;14.62;90.23;100561.11;1645062;84;21503;-71
2021/09/12 00:59:03;;;;;;;29.93;24.63;;;;;;;14.62;89.58;100557.88;1670927;83;21466;-71
2021/09/12 01:01:30;;;;;;;30.00;25.60;;;;;;;14.62;89.58;100557.88;1668373;83;21894;-71
2021/09/12 01:03:57;;;;;;;32.07;24.97;;;;;;;14.65;89.73;100560.55;1665439;84;21460;-71
2021/09/12 01:06:23;;;;;;;28.47;23.90;;;;;;;14.62;89.47;100568.63;1662463;84;21359;-70
2021/09/12 01:08:50;;;;;;;25.83;23.07;;;;;;;14.60;89.18;100564.61;1664890;83;21378;-72
2021/09/12 01:11:18;;;;;;;31.10;23.73;;;;;;;14.57;88.94;100561.14;1665560;84;21783;-72
2021/09/12 01:13:46;;;;;;;28.17;24.07;;;;;;;14.56;88.75;100560.34;1665549;84;21944;-72
2021/09/12 01:16:15;;;;;;;29.97;23.80;;;;;;;14.55;88.62;100562.78;1683528;83;21451;-71
2021/09/12 01:18:43;;;;;;;29.33;24.43;;;;;;;14.53;88.53;100567.09;1670635;83;22158;-71
2021/09/12 01:21:14;;;;;;;28.00;23.83;;;;;;;14.51;88.48;100557.69;1666725;84;21286;-71
2021/09/12 01:23:42;;;;;;;28.77;24.60;;;;;;;14.49;88.42;100559.30;1683946;83;27136;-71
2021/09/12 01:26:09;;;;;;;29.60;24.27;;;;;;;14.47;88.32;100556.09;1685771;83;21108;-71
2021/09/12 01:28:40;;;;;;;31.87;24.87;;;;;;;14.47;88.31;100557.98;1667514;84;21520;-71
2021/09/12 01:31:07;;;;;;;29.40;24.05;;;;;;;14.45;88.39;100552.09;1667554;84;21898;-71
2021/09/12 01:33:34;;;;;;;27.77;23.20;;;;;;;14.42;88.53;100552.66;1666494;84;20962;-71
2021/09/12 01:36:00;;;;;;;32.17;25.60;;;;;;;14.37;88.74;100553.48;1666923;84;21680;-71
2021/09/12 01:38:29;;;;;;;31.13;24.73;;;;;;;14.37;88.74;100553.48;1666852;84;21903;-72
2021/09/12 01:40:57;;;;;;;31.13;25.43;;;;;;;14.36;89.15;100559.16;1676348;83;21412;-72
2021/09/12 01:43:26;;;;;;;31.80;25.10;;;;;;;14.34;89.44;100559.97;1679945;83;21459;-73
2021/09/12 01:45:53;;;;;;;28.80;25.60;;;;;;;14.31;89.71;100559.47;1675265;84;22160;-70
2021/09/12 01:48:21;;;;;;;29.00;25.23;;;;;;;14.30;89.91;100560.53;1683110;83;21495;-71
2021/09/12 01:50:47;;;;;;;32.13;25.87;;;;;;;14.31;90.26;100554.09;1682421;83;21353;-72
2021/09/12 01:53:14;;;;;;;27.27;24.37;;;;;;;14.31;90.26;100554.09;1684366;83;21737;-72
2021/09/12 01:55:43;;;;;;;32.13;26.10;;;;;;;14.35;90.18;100556.22;1682135;83;21303;-72
2021/09/12 01:58:10;;;;;;;31.53;25.50;;;;;;;14.35;90.21;100558.36;1679777;83;21925;-72
2021/09/12 02:00:38;;;;;;;31.97;25.83;;;;;;;14.35;90.25;100552.19;1684003;84;21392;-71
2021/09/12 02:03:04;;;;;;;31.10;26.23;;;;;;;14.34;90.25;100548.68;1674280;84;21337;-72
2021/09/12 02:05:32;;;;;;;34.77;27.47;;;;;;;14.33;90.25;100553.01;1684139;83;21350;-71
2021/09/12 02:07:58;;;;;;;30.53;26.30;;;;;;;14.31;90.24;100549.24;1679651;83;21850;-72
2021/09/12 02:10:26;;;;;;;31.17;25.37;;;;;;;14.30;90.29;100548.44;1693559;83;21320;-71
2021/09/12 02:12:54;;;;;;;29.70;25.10;;;;;;;14.31;90.31;100551.92;1675577;84;21300;-71
2021/09/12 02:15:22;;;;;;;30.33;24.37;;;;;;;14.30;90.01;100546.30;1683707;83;21322;-72
2021/09/12 02:17:49;;;;;;;32.13;24.77;;;;;;;14.30;90.01;100546.30;1658040;84;21543;-72
2021/09/12 02:20:16;;;;;;;31.87;25.73;;;;;;;14.30;90.36;100547.64;1656003;84;22793;-70
2021/09/12 02:22:43;;;;;;;28.63;23.50;;;;;;;14.27;90.43;100545.52;1683480;84;21373;-70
2021/09/12 02:25:11;;;;;;;32.17;25.40;;;;;;;14.25;90.46;100548.50;1677801;83;21913;-71
2021/09/12 02:27:39;;;;;;;29.67;25.13;;;;;;;14.22;90.53;100549.61;1681095;83;21394;-72
2021/09/12 02:30:07;;;;;;;30.63;24.30;;;;;;;14.19;90.30;100548.83;1675818;83;21368;-72
2021/09/12 02:32:35;;;;;;;30.40;25.27;;;;;;;14.19;90.30;100548.83;1658360;84;21412;-71
2021/09/12 02:35:03;;;;;;;30.63;25.27;;;;;;;14.17;90.69;100545.06;1669513;84;21571;-71
2021/09/12 02:37:29;;;;;;;28.47;24.63;;;;;;;14.18;90.73;100550.72;1665519;84;21473;-71
2021/09/12 02:39:56;;;;;;;30.03;25.37;;;;;;;14.19;90.80;100550.17;1665201;84;21520;-71
2021/09/12 02:42:23;;;;;;;29.70;24.73;;;;;;;14.16;90.92;100547.50;1654845;84;21371;-70
2021/09/12 02:44:49;;;;;;;30.57;25.07;;;;;;;14.15;90.98;100544.56;1661930;84;21454;-71
2021/09/12 02:47:19;;;;;;;29.93;24.57;;;;;;;14.12;91.13;100544.32;1664300;84;22044;-71
2021/09/12 02:49:45;;;;;;;30.37;25.20;;;;;;;14.10;91.27;100546.48;1666668;86;21516;-72
2021/09/12 02:52:12;;;;;;;30.83;25.70;;;;;;;14.08;91.42;100542.20;1662766;84;21346;-72
2021/09/12 02:54:39;;;;;;;30.90;25.37;;;;;;;14.12;91.60;100539.75;1667397;83;21893;-71
2021/09/12 02:57:06;;;;;;;32.87;25.30;;;;;;;14.12;91.60;100539.75;1686166;83;21395;-71
2021/09/12 02:59:34;;;;;;;30.10;25.50;;;;;;;14.14;91.70;100542.14;1680497;83;21881;-71
2021/09/12 03:02:02;;;;;;;28.23;25.23;;;;;;;14.13;92.08;100544.03;1673388;84;21452;-71
2021/09/12 03:04:31;;;;;;;30.60;24.90;;;;;;;14.13;92.08;100544.03;1681626;83;22342;-71
2021/09/12 03:06:58;;;;;;;30.40;25.40;;;;;;;14.12;91.77;100534.38;1680916;83;21719;-71
2021/09/12 03:09:26;;;;;;;28.47;24.93;;;;;;;14.14;91.78;100538.11;1689151;83;21392;-72
2021/09/12 03:11:55;;;;;;;29.83;23.77;;;;;;;14.12;91.90;100530.34;1655080;83;22936;-69
2021/09/12 03:14:23;;;;;;;27.03;23.90;;;;;;;14.13;91.96;100529.25;1663814;84;21874;-71
2021/09/12 03:16:51;;;;;;;28.40;24.80;;;;;;;14.13;91.97;100528.45;1663534;84;21442;-70
2021/09/12 03:19:18;;;;;;;29.57;26.13;;;;;;;14.11;91.94;100530.61;1679730;83;21346;-71
2021/09/12 03:21:45;;;;;;;29.77;26.20;;;;;;;14.09;91.92;100533.59;1670947;83;21502;-71
2021/09/12 03:24:12;;;;;;;28.73;25.27;;;;;;;14.08;91.67;100534.13;1685894;83;21381;-72
2021/09/12 03:26:50;;;;;;;32.30;26.53;;;;;;;14.08;91.67;100534.13;1680692;83;21481;-72
2021/09/12 03:29:17;;;;;;;29.43;24.67;;;;;;;14.06;91.84;100531.46;1652037;84;21428;-71
2021/09/12 03:31:44;;;;;;;27.93;24.90;;;;;;;14.07;91.82;100533.06;1672725;84;21917;-71
2021/09/12 03:34:11;;;;;;;29.20;26.03;;;;;;;14.07;91.77;100535.20;1657396;84;21922;-71
2021/09/12 03:36:37;;;;;;;31.00;26.33;;;;;;;14.06;91.72;100532.26;1674633;84;21490;-71
2021/09/12 03:39:04;;;;;;;30.70;27.50;;;;;;;14.05;91.67;100529.33;1674684;84;21325;-70
2021/09/12 03:41:31;;;;;;;30.03;26.70;;;;;;;14.04;91.65;100533.61;1657398;84;21412;-70
2021/09/12 03:44:00;;;;;;;30.23;26.17;;;;;;;14.04;91.60;100534.95;1671443;84;21429;-71
2021/09/12 03:46:26;;;;;;;30.20;26.07;;;;;;;14.02;91.58;100534.45;1654782;84;21823;-71
2021/09/12 03:48:52;;;;;;;28.87;25.90;;;;;;;14.03;91.57;100543.56;1673922;84;21748;-71
2021/09/12 03:51:19;;;;;;;31.13;27.80;;;;;;;14.06;91.76;100544.34;1675181;84;21361;-72
2021/09/12 03:53:46;;;;;;;28.07;25.10;;;;;;;14.06;91.76;100544.34;1677051;83;21362;-72
2021/09/12 03:56:13;;;;;;;29.53;25.83;;;;;;;14.08;91.33;100544.05;1656396;84;21485;-72
2021/09/12 03:58:40;;;;;;;33.03;29.43;;;;;;;14.08;91.23;100545.39;1666636;83;21422;-72
2021/09/12 04:01:07;;;;;;;29.70;26.17;;;;;;;14.08;91.22;100543.53;1666043;84;21340;-71
2021/09/12 04:03:35;;;;;;;32.20;28.77;;;;;;;14.11;91.23;100547.52;1680110;83;21398;-72
2021/09/12 04:06:01;;;;;;;32.73;27.77;;;;;;;14.14;91.03;100539.45;1678169;83;21882;-72
2021/09/12 04:08:28;;;;;;;32.43;28.40;;;;;;;14.14;91.03;100539.45;1656527;84;21547;-70
2021/09/12 04:10:56;;;;;;;34.67;29.13;;;;;;;14.16;91.25;100541.33;1665570;83;21304;-72
2021/09/12 04:13:24;;;;;;;34.77;30.97;;;;;;;14.22;91.08;100541.00;1667729;84;21960;-70
2021/09/12 04:15:51;;;;;;;35.27;31.37;;;;;;;14.28;91.14;100540.40;1663691;84;21499;-70
2021/09/12 04:18:18;;;;;;;39.33;31.00;;;;;;;14.28;91.14;100540.40;1667351;84;21417;-71
2021/09/12 04:20:47;;;;;;;31.50;28.20;;;;;;;14.38;91.63;100545.71;1665599;84;21436;-70
2021/09/12 04:23:16;;;;;;;34.48;30.77;;;;;;;14.38;91.63;100545.71;1647457;84;21399;-71
2021/09/12 04:25:43;;;;;;;34.80;30.80;;;;;;;14.42;91.31;100544.60;1666172;84;21035;-70
2021/09/12 04:28:10;;;;;;;35.30;30.70;;;;;;;14.48;91.33;100542.92;1667642;84;21547;-71
2021/09/12 04:30:36;;;;;;;34.13;30.50;;;;;;;14.56;91.34;100535.36;1662703;84;21625;-71
2021/09/12 04:33:03;;;;;;;32.97;29.37;;;;;;;14.63;91.36;100537.96;1667401;84;21571;-71
2021/09/12 04:35:30;;;;;;;32.53;28.87;;;;;;;14.71;91.35;100534.67;1664163;84;21551;-72
2021/09/12 04:37:58;;;;;;;34.40;30.77;;;;;;;14.84;91.36;100533.71;1665657;84;21579;-72
2021/09/12 04:40:24;;;;;;;35.03;31.30;;;;;;;14.91;91.19;100533.65;1666212;84;22204;-72
2021/09/12 04:42:53;;;;;;;33.67;29.70;;;;;;;14.91;91.19;100533.65;1666980;84;21826;-71
2021/09/12 04:45:19;;;;;;;33.50;29.70;;;;;;;15.05;90.97;100532.41;1665063;84;21473;-72
2021/09/12 04:47:46;;;;;;;33.60;29.77;;;;;;;15.05;90.97;100532.41;1661216;84;22386;-72
2021/09/12 04:50:14;;;;;;;35.30;30.47;;;;;;;15.10;90.86;100525.61;1666775;84;22237;-71
2021/09/12 04:52:43;;;;;;;33.23;29.67;;;;;;;15.19;90.78;100524.43;1665541;84;21846;-71
2021/09/12 04:55:11;;;;;;;33.03;29.57;;;;;;;15.25;90.87;100516.56;1666070;84;21912;-71
2021/09/12 04:57:38;;;;;;;35.10;29.30;;;;;;;15.34;90.84;100515.37;1658008;85;21734;-71
2021/09/12 05:00:06;;;;;;;34.07;30.37;;;;;;;15.41;90.83;100517.16;1669870;84;21823;-71
2021/09/12 05:02:33;;;;;;;36.10;31.50;;;;;;;15.49;90.76;100515.95;1667390;83;21810;-71
2021/09/12 05:05:00;;;;;;;35.67;30.73;;;;;;;15.62;90.60;100524.39;1683507;83;21773;-71
2021/09/12 05:07:29;;;;;;;31.90;28.20;;;;;;;15.71;90.47;100516.75;1686554;83;22169;-72
2021/09/12 05:09:57;;;;;;;34.43;30.73;;;;;;;15.83;90.21;100515.52;1664549;84;21764;-71
2021/09/12 05:12:28;;;;;;;34.13;30.07;;;;;;;15.93;90.03;100507.28;1667687;84;22021;-71
2021/09/12 05:14:56;;;;;;;33.87;30.43;;;;;;;16.02;89.78;100509.53;1690223;83;22235;-71
2021/09/12 05:17:23;;;;;;;34.33;30.23;;;;;;;16.11;89.57;100511.81;1689539;83;21810;-72
2021/09/12 05:19:49;;;;;;;32.80;29.40;;;;;;;16.20;89.35;100507.11;1692245;83;22569;-71
2021/09/12 05:22:17;;;;;;;34.80;29.20;;;;;;;16.28;89.14;100510.46;1690885;83;21071;-72
2021/09/12 05:24:45;;;;;;;31.80;28.43;;;;;;;16.37;88.76;100511.38;1660257;84;21754;-72
2021/09/12 05:27:12;;;;;;;34.63;31.00;;;;;;;16.46;88.47;100510.96;1671018;83;22181;-71
2021/09/12 05:29:39;;;;;;;34.27;30.77;;;;;;;16.56;88.20;100510.77;1664381;84;20996;-72
2021/09/12 05:32:07;;;;;;;34.60;30.97;;;;;;;16.65;87.94;100504.94;1689363;83;21073;-71
2021/09/12 05:34:33;;;;;;;37.03;32.97;;;;;;;16.75;87.67;100512.59;1656583;84;21142;-71
2021/09/12 05:37:00;;;;;;;36.90;32.77;;;;;;;16.84;87.32;100508.11;1698979;82;21113;-70
2021/09/12 05:39:27;;;;;;;34.97;31.37;;;;;;;16.96;87.00;100507.06;1672762;84;21125;-70
2021/09/12 05:41:54;;;;;;;33.03;29.43;;;;;;;17.07;86.60;100511.14;1675359;84;20984;-72
2021/09/12 05:44:21;;;;;;;36.00;32.20;;;;;;;17.19;86.27;100505.80;1688978;83;21036;-71
2021/09/12 05:46:51;;;;;;;34.67;31.00;;;;;;;17.29;85.79;100502.88;1677882;83;21638;-71
2021/09/12 05:49:17;;;;;;;33.50;29.73;;;;;;;17.40;85.45;100502.89;1691408;83;21115;-71
2021/09/12 05:51:43;;;;;;;32.43;29.07;;;;;;;17.51;84.92;100500.79;1686390;83;21642;-71
2021/09/12 05:54:10;;;;;;;32.43;29.07;;;;;;;17.59;84.42;100502.19;1655831;84;21055;-71
2021/09/12 05:56:38;;;;;;;32.40;29.10;;;;;;;17.70;84.18;100503.30;1687436;83;21483;-71
2021/09/12 05:59:07;;;;;;;31.60;28.20;;;;;;;17.80;83.67;100503.09;1690782;82;21667;-72
2021/09/12 06:01:33;;;;;;;29.10;26.03;;;;;;;17.91;82.98;100502.32;1688469;82;21085;-71
2021/09/12 06:04:00;;;;;;;31.23;27.70;;;;;;;17.96;82.55;100504.33;1670572;82;21066;-71
2021/09/12 06:06:27;;;;;;;30.40;27.27;;;;;;;18.04;82.42;100502.25;1678405;84;21670;-72
2021/09/12 06:08:55;;;;;;;27.77;24.67;;;;;;;18.16;81.99;100507.64;1673826;84;21489;-72
2021/09/12 06:11:22;;;;;;;27.07;24.20;;;;;;;18.27;81.20;100510.34;1688003;83;21098;-72
2021/09/12 06:13:51;;;;;;;27.07;24.13;;;;;;;18.39;80.19;100506.48;1697341;83;21060;-71
2021/09/12 06:16:20;;;;;;;27.37;24.40;;;;;;;18.53;79.64;100509.13;1667642;83;21121;-71
2021/09/12 06:18:52;;;;;;;28.63;25.30;;;;;;;18.67;79.66;100502.26;1686123;83;21044;-71
2021/09/12 06:21:21;;;;;;;;;;;;;;;18.80;79.17;100501.94;1666986;84;21082;-72
2021/09/12 06:23:51;;;;;;;28.60;25.57;;;;;;;18.93;78.40;100504.53;1654551;84;20180;-71
2021/09/12 06:26:19;;;;;;;29.27;24.90;;;;;;;19.07;77.15;100503.61;1665604;84;21190;-71
2021/09/12 06:28:58;;;;;;;29.57;26.10;;;;;;;19.20;76.04;100497.26;1689322;83;21128;-69
2021/09/12 06:31:26;;;;;;;29.98;24.87;;;;;;;19.33;74.66;100503.09;1655021;84;21563;-72
2021/09/12 06:33:53;;;;;;;29.33;24.50;;;;;;;19.47;73.80;100507.56;1674903;83;21094;-71
2021/09/12 06:36:21;;;;;;;24.97;22.37;;;;;;;19.57;72.89;100500.48;1677381;84;21019;-69
2021/09/12 06:38:49;;;;;;;27.43;23.83;;;;;;;19.70;72.29;100504.17;1691342;83;21306;-70
2021/09/12 06:41:16;;;;;;;25.87;22.73;;;;;;;19.81;71.52;100508.97;1678655;83;21545;-70
2021/09/12 06:43:44;;;;;;;25.20;22.50;;;;;;;19.95;71.04;100509.34;1677803;83;21581;-70
2021/09/12 06:46:10;;;;;;;23.83;20.03;;;;;;;20.05;70.63;100504.38;1692824;83;21024;-70
2021/09/12 06:48:39;;;;;;;22.83;20.43;;;;;;;20.18;70.18;100510.73;1672644;84;21090;-71
2021/09/12 06:51:06;;;;;;;24.17;21.10;;;;;;;20.30;69.08;100508.17;1678816;84;21986;-71
2021/09/12 06:53:32;;;;;;;24.77;19.27;;;;;;;20.42;68.50;100506.69;1690750;84;21097;-70
2021/09/12 06:56:00;;;;;;;21.43;19.13;;;;;;;20.56;67.77;100509.44;1669920;83;33847;-70
2021/09/12 06:58:27;;;;;;;21.47;19.23;;;;;;;20.70;66.69;100505.75;1668178;84;21519;-69
2021/09/12 07:00:57;;;;;;;21.23;18.90;;;;;;;20.82;65.25;100506.62;1670012;84;21807;-70
2021/09/12 07:03:27;;;;;;;22.53;18.67;;;;;;;20.94;64.24;100509.21;1676384;84;21221;-70
2021/09/12 07:05:54;;;;;;;20.50;17.83;;;;;;;21.04;63.72;100508.83;1686961;82;21509;-68
2021/09/12 07:08:21;;;;;;;21.73;18.27;;;;;;;21.18;62.96;100515.37;1683437;82;21062;-70
2021/09/12 07:10:48;;;;;;;20.17;17.60;;;;;;;21.27;62.41;100512.84;1676410;82;20999;-70
2021/09/12 07:13:15;;;;;;;17.30;15.37;;;;;;;21.39;62.25;100515.41;1691357;83;22514;-69
2021/09/12 07:15:42;;;;;;;18.60;16.60;;;;;;;21.46;61.42;100511.63;1691868;83;21153;-70
2021/09/12 07:18:10;;;;;;;19.37;17.30;;;;;;;21.55;60.12;100515.05;1687368;83;21052;-71
2021/09/12 07:20:37;;;;;;;19.93;16.93;;;;;;;21.62;60.51;100508.55;1642393;85;21017;-71
2021/09/12 07:23:06;;;;;;;18.17;16.03;;;;;;;21.71;59.54;100516.05;1671612;84;21084;-70
2021/09/12 07:25:33;;;;;;;17.13;15.27;;;;;;;21.81;59.12;100509.97;1673329;84;21165;-70
2021/09/12 07:28:00;;;;;;;16.57;14.50;;;;;;;21.91;58.04;100505.48;1662586;84;21129;-70
2021/09/12 07:30:26;;;;;;;16.20;14.50;;;;;;;21.98;57.86;100509.27;1680460;83;21079;-69
2021/09/12 07:32:55;;;;;;;15.87;13.60;;;;;;;22.07;57.84;100509.73;1694345;83;21080;-70
2021/09/12 07:35:22;;;;;;;15.90;14.10;;;;;;;22.17;56.60;100514.77;1659239;85;21046;-70
2021/09/12 07:37:49;;;;;;;15.37;13.77;;;;;;;22.26;56.14;100510.05;1673431;84;20975;-70
2021/09/12 07:40:17;;;;;;;17.37;14.73;;;;;;;22.34;56.00;100513.79;1680902;83;21124;-70
2021/09/12 07:42:47;;;;;;;16.07;14.27;;;;;;;22.44;54.91;100505.19;1669064;84;21074;-71
2021/09/12 07:45:18;;;;;;;16.07;13.10;;;;;;;22.55;54.76;100501.48;1671545;83;21054;-71
2021/09/12 07:47:45;;;;;;;14.97;13.37;;;;;;;22.63;53.65;100504.64;1705952;83;21122;-71
2021/09/12 07:50:14;;;;;;;16.13;12.73;;;;;;;22.69;53.37;100504.08;1669386;84;21526;-70
2021/09/12 07:52:43;;;;;;;15.73;13.40;;;;;;;22.78;52.71;100501.26;1688800;82;21588;-70
2021/09/12 07:55:15;;;;;;;13.72;11.95;;;;;;;22.85;52.59;100504.20;1697641;83;21066;-69
2021/09/12 07:57:42;;;;;;;15.83;12.50;;;;;;;22.97;52.73;100506.70;1680288;83;21089;-70
2021/09/12 08:00:10;;;;;;;13.83;11.50;;;;;;;23.08;52.54;100509.22;1703431;83;21015;-69
2021/09/12 08:02:40;;;;;;;13.60;11.53;;;;;;;23.18;51.55;100506.81;1682487;84;21096;-70
2021/09/12 08:05:09;;;;;;;13.63;12.23;;;;;;;23.25;51.28;100505.44;1679025;84;21571;-70
2021/09/12 08:07:36;;;;;;;14.30;12.30;;;;;;;23.27;50.52;100506.69;1683674;83;21134;-70
2021/09/12 08:10:04;;;;;;;14.10;11.73;;;;;;;23.31;50.46;100504.86;1676611;83;21486;-70
2021/09/12 08:12:32;;;;;;;12.33;11.03;;;;;;;23.37;50.61;100501.33;1665747;84;21031;-70
2021/09/12 08:15:00;;;;;;;12.93;11.53;;;;;;;23.44;50.03;100493.36;1696985;83;20992;-71
2021/09/12 08:17:27;;;;;;;13.13;11.83;;;;;;;23.50;49.82;100498.80;1677523;83;21161;-71
2021/09/12 08:19:55;;;;;;;12.50;11.20;;;;;;;23.57;48.67;100494.91;1668099;83;21070;-70
2021/09/12 08:22:23;;;;;;;14.40;11.03;;;;;;;23.61;48.95;100498.52;1680484;83;21023;-70
2021/09/12 08:24:52;;;;;;;14.80;11.80;;;;;;;23.67;48.62;100488.17;1673096;84;21051;-71
2021/09/12 08:27:19;;;;;;;12.40;11.10;;;;;;;23.76;47.96;100492.15;1678381;84;21450;-70
2021/09/12 08:29:47;;;;;;;12.77;11.37;;;;;;;23.82;47.19;100494.83;1663798;83;22023;-70
2021/09/12 08:32:15;;;;;;;12.80;10.73;;;;;;;23.83;47.60;100490.98;1701738;83;20987;-72
2021/09/12 08:34:42;;;;;;;12.63;11.23;;;;;;;23.85;46.61;100494.92;1676320;83;21054;-71
2021/09/12 08:37:09;;;;;;;12.23;10.80;;;;;;;23.83;46.50;100490.40;1674534;83;21018;-71
2021/09/12 08:39:36;;;;;;;13.33;11.20;;;;;;;23.84;46.39;100488.46;1679108;83;20978;-71
2021/09/12 08:42:03;;;;;;;12.53;10.83;;;;;;;23.87;46.49;100491.86;1697588;83;21165;-71
2021/09/12 08:44:31;;;;;;;13.37;11.03;;;;;;;23.93;46.52;100485.02;1679141;82;21066;-71
2021/09/12 08:46:58;;;;;;;14.10;10.87;;;;;;;23.98;45.89;100486.11;1675917;84;21086;-71
2021/09/12 08:49:25;;;;;;;13.03;11.53;;;;;;;24.04;45.43;100489.38;1684839;84;21150;-71
2021/09/12 08:51:53;;;;;;;12.77;11.00;;;;;;;24.08;45.32;100490.27;1687338;83;21076;-71
2021/09/12 08:54:19;;;;;;;13.77;10.70;;;;;;;24.13;44.74;100489.23;1668662;84;21615;-71
2021/09/12 08:56:46;;;;;;;13.00;10.87;;;;;;;24.20;45.42;100484.73;1676155;84;20991;-71
2021/09/12 08:59:27;;;;;;;13.40;11.37;;;;;;;24.27;45.60;100486.86;1661137;84;21081;-71
2021/09/12 09:02:01;;;;;;;12.00;10.20;;;;;;;24.32;44.49;100484.67;1685882;82;21043;-71
2021/09/12 09:04:30;;;;;;;11.37;10.17;;;;;;;24.32;43.77;100484.67;1696097;82;21133;-71
2021/09/12 09:07:09;;;;;;;10.83;9.73;;;;;;;24.34;42.98;100484.30;1674159;84;22159;-71
2021/09/12 09:09:47;;;;;;;12.50;10.63;;;;;;;24.39;43.24;100483.27;1681276;84;21066;-73
2021/09/12 09:12:36;;;;;;;11.03;9.57;;;;;;;24.46;43.50;100484.26;1688128;83;21064;-72
2021/09/12 09:15:21;;;;;;;12.07;9.20;;;;;;;24.58;42.91;100480.66;1661703;85;21076;-71
2021/09/12 09:18:14;;;;;;;12.93;10.40;;;;;;;24.76;42.10;100483.80;1656107;86;21020;-71
2021/09/12 09:20:55;;;;;;;11.90;9.80;;;;;;;24.90;41.36;100476.50;1642808;84;21551;-72
2021/09/12 09:23:22;;;;;;;14.23;9.43;;;;;;;25.02;41.13;100474.45;1685247;83;21040;-70
2021/09/12 09:25:52;;;;;;;14.80;10.93;;;;;;;25.11;40.86;100473.47;1692018;84;21158;-71
2021/09/12 09:28:19;;;;;;;13.90;11.07;;;;;;;25.21;41.00;100471.56;1661347;84;21084;-69
2021/09/12 09:30:57;;;;;;;13.23;9.90;;;;;;;25.30;40.39;100463.14;1681691;83;21074;-71
2021/09/12 09:33:26;;;;;;;12.20;9.60;;;;;;;25.36;40.15;100461.13;1676197;83;21169;-71
2021/09/12 09:36:05;;;;;;;12.60;9.40;;;;;;;25.44;39.93;100460.14;1669770;84;21227;-72
2021/09/12 09:38:38;;;;;;;11.33;9.73;;;;;;;25.52;39.97;100458.33;1676993;84;21082;-70
2021/09/12 09:41:12;;;;;;;12.07;9.77;;;;;;;25.63;38.99;100460.71;1666298;84;21074;-70
2021/09/12 09:43:50;;;;;;;14.57;10.00;;;;;;;25.67;39.18;100455.30;1688030;83;21095;-70
2021/09/12 09:46:41;;;;;;;13.87;10.07;;;;;;;25.69;39.28;100458.45;1692121;83;22268;-74
2021/09/12 09:49:25;;;;;;;17.13;10.30;;;;;;;25.74;39.01;100463.06;1679963;84;21098;-74
2021/09/12 09:51:58;;;;;;;11.60;9.53;;;;;;;25.80;38.64;100461.38;1666241;84;21070;-76
2021/09/12 09:54:26;;;;;;;12.53;9.10;;;;;;;25.84;39.45;100458.19;1687830;83;21087;-77
2021/09/12 09:56:53;;;;;;;10.97;9.00;;;;;;;25.87;38.34;100458.83;1685914;83;21111;-77
2021/09/12 09:59:25;;;;;;;11.60;9.40;;;;;;;25.92;39.05;100462.05;1671192;84;21569;-77
2021/09/12 10:01:53;;;;;;;12.43;10.37;;;;;;;26.02;39.19;100453.81;1680397;83;21525;-78
2021/09/12 10:04:28;;;;;;;13.33;10.70;;;;;;;26.11;39.45;100446.16;1664136;84;21562;-75
2021/09/12 10:06:56;;;;;;;14.03;10.50;;;;;;;26.13;39.43;100450.70;1674792;83;20997;-77
2021/09/12 10:09:23;;;;;;;15.93;10.33;;;;;;;25.99;38.97;100447.70;1670157;84;21117;-80
2021/09/12 10:11:54;;;;;;;14.03;10.13;;;;;;;26.00;39.30;100455.36;1667419;84;22027;-79
2021/09/12 10:14:33;;;;;;;11.87;9.37;;;;;;;26.08;39.30;100456.47;1669476;84;21111;-79
2021/09/12 10:17:01;;;;;;;12.83;10.00;;;;;;;26.15;38.66;100449.73;1662255;83;21086;-77
2021/09/12 10:19:39;;;;;;;11.23;9.27;;;;;;;26.14;38.47;100447.37;1663354;84;21080;-75
2021/09/12 10:22:17;;;;;;;13.47;10.17;;;;;;;26.16;38.54;100454.66;1672424;84;21509;-77
2021/09/12 10:25:06;;;;;;;10.60;9.13;;;;;;;26.16;39.28;100452.71;1688549;83;21928;-77
2021/09/12 10:27:43;;;;;;;14.90;10.00;;;;;;;26.18;37.34;100449.59;1671328;83;21474;-77
2021/09/12 10:30:40;;;;;;;12.97;9.93;;;;;;;26.11;38.08;100442.63;1697502;83;21033;-76
2021/09/12 10:33:17;;;;;;;12.17;10.03;;;;;;;26.13;37.95;100445.23;1689789;82;21641;-74
2021/09/12 10:35:54;;;;;;;11.50;9.60;;;;;;;26.15;37.79;100438.00;1656588;84;21083;-76
2021/09/12 10:38:32;;;;;;;12.97;9.67;;;;;;;26.20;37.50;100443.19;1686817;83;21032;-75
2021/09/12 10:41:05;;;;;;;11.73;9.57;;;;;;;26.22;37.77;100440.86;1657970;84;21119;-76
2021/09/12 10:43:45;;;;;;;14.60;10.97;;;;;;;26.22;37.88;100439.48;1716669;83;21091;-77
2021/09/12 10:46:17;;;;;;;11.80;9.73;;;;;;;26.19;37.66;100437.48;1672407;84;21152;-76
2021/09/12 10:49:04;;;;;;;14.10;9.33;;;;;;;26.22;37.38;100429.91;1677637;84;21544;-78
2021/09/12 10:51:35;;;;;;;12.43;9.83;;;;;;;26.24;37.49;100433.08;1677744;84;21245;-77
2021/09/12 10:54:01;;;;;;;11.40;9.90;;;;;;;26.26;37.43;100429.96;1669574;85;21161;-76
2021/09/12 10:56:37;;;;;;;10.73;9.60;;;;;;;26.26;37.79;100427.22;1674754;84;21515;-75
2021/09/12 10:59:12;;;;;;;10.83;9.70;;;;;;;26.28;37.92;100426.29;1673048;83;21512;-77
2021/09/12 11:01:45;;;;;;;12.37;10.10;;;;;;;26.33;37.55;100418.56;1665398;83;21515;-75
2021/09/12 11:04:15;;;;;;;12.23;10.30;;;;;;;26.36;37.23;100421.94;1698317;83;21539;-77
2021/09/12 11:06:47;;;;;;;10.77;9.33;;;;;;;26.41;37.76;100421.61;1659358;84;21055;-75
2021/09/12 11:09:20;;;;;;;12.47;9.80;;;;;;;26.47;38.00;100418.58;1686767;83;21503;-76
2021/09/12 11:11:48;;;;;;;10.83;9.20;;;;;;;26.44;37.40;100422.25;1669288;84;21043;-76
2021/09/12 11:14:19;;;;;;;11.47;10.13;;;;;;;26.40;37.07;100417.89;1667111;84;21007;-77
2021/09/12 11:16:45;;;;;;;12.17;9.73;;;;;;;26.35;37.19;100412.12;1690607;83;21102;-78
2021/09/12 11:19:14;;;;;;;11.73;10.43;;;;;;;26.37;37.33;100418.03;1664553;84;21105;-75